createdAt,value
2018-08-11T00:01:31.032Z,99.80
2018-08-11T00:03:59.714Z,99.90
2018-08-11T00:06:28.348Z,99.90
2018-08-11T00:08:56.982Z,99.90
2018-08-11T00:11:25.672Z,99.80
2018-08-11T00:13:54.238Z,99.60
2018-08-11T00:16:22.824Z,99.70
2018-08-11T00:18:51.367Z,99.90
2018-08-11T00:21:20.012Z,99.40
2018-08-11T00:23:48.561Z,99.50
2018-08-11T00:26:17.148Z,99.40
2018-08-11T00:28:45.736Z,99.50
2018-08-11T00:31:14.268Z,99.30
2018-08-11T00:33:42.890Z,99.60
2018-08-11T00:36:11.528Z,99.70
2018-08-11T00:38:40.164Z,99.50
2018-08-11T00:41:08.750Z,99.30
2018-08-11T00:43:37.354Z,99.40
2018-08-11T00:46:06.004Z,99.20
2018-08-11T00:48:34.624Z,99.20
2018-08-11T00:51:03.336Z,99.30
2018-08-11T00:53:31.881Z,99.50
2018-08-11T00:56:00.506Z,99.70
2018-08-11T00:58:29.062Z,99.60
2018-08-11T01:00:57.835Z,99.60
2018-08-11T01:03:26.418Z,99.50
2018-08-11T01:05:55.066Z,99.50
2018-08-11T01:08:23.690Z,99.30
2018-08-11T01:10:52.266Z,99.50
2018-08-11T01:13:21.742Z,99.50
2018-08-11T01:15:50.936Z,99.70
2018-08-11T01:18:19.609Z,99.90
2018-08-11T01:20:48.188Z,99.80
2018-08-11T01:23:16.907Z,99.90
2018-08-11T01:25:45.549Z,99.80
2018-08-11T01:28:14.108Z,99.30
2018-08-11T01:30:42.681Z,99.30
2018-08-11T01:33:11.258Z,98.80
2018-08-11T01:35:39.934Z,98.40
2018-08-11T01:38:08.748Z,98.70
2018-08-11T01:40:37.340Z,98.80
2018-08-11T01:43:06.054Z,99.10
2018-08-11T01:45:34.636Z,99.20
2018-08-11T01:48:03.634Z,98.50
2018-08-11T01:50:32.286Z,98.80
2018-08-11T01:53:03.508Z,99.00
2018-08-11T01:55:32.123Z,98.70
2018-08-11T01:58:00.746Z,98.60
2018-08-11T02:00:29.417Z,98.90
2018-08-11T02:02:58.054Z,99.10
2018-08-11T02:05:26.675Z,99.30
2018-08-11T02:07:55.191Z,98.90
2018-08-11T02:10:23.784Z,98.70
2018-08-11T02:12:52.308Z,98.50
2018-08-11T02:15:20.934Z,99.00
2018-08-11T02:17:49.516Z,99.20
2018-08-11T02:20:19.286Z,99.10
2018-08-11T02:22:48.812Z,99.30
2018-08-11T02:25:17.471Z,99.30
2018-08-11T02:27:46.082Z,99.20
2018-08-11T02:30:15.956Z,98.60
2018-08-11T02:32:44.575Z,98.90
2018-08-11T02:35:13.754Z,99.20
2018-08-11T02:37:42.709Z,99.10
2018-08-11T02:40:12.938Z,99.20
2018-08-11T02:42:41.510Z,99.20
2018-08-11T02:45:13.021Z,99.30
2018-08-11T02:47:41.659Z,99.30
2018-08-11T02:50:11.401Z,99.30
2018-08-11T02:52:40.553Z,99.30
2018-08-11T02:55:09.253Z,99.30
2018-08-11T02:57:37.793Z,99.20
2018-08-11T03:00:08.144Z,99.20
2018-08-11T03:02:36.843Z,99.10
2018-08-11T03:05:05.579Z,99.20
2018-08-11T03:07:34.256Z,99.20
2018-08-11T03:10:02.868Z,99.10
2018-08-11T03:12:31.430Z,99.10
2018-08-11T03:15:00.019Z,99.20
2018-08-11T03:17:28.562Z,99.30
2018-08-11T03:19:57.112Z,99.40
2018-08-11T03:22:25.722Z,99.40
2018-08-11T03:24:54.272Z,99.60
2018-08-11T03:27:22.890Z,99.90
2018-08-11T03:29:51.428Z,99.90
2018-08-11T03:32:19.980Z,99.80
2018-08-11T03:34:48.501Z,99.90
2018-08-11T03:37:17.195Z,99.90
2018-08-11T03:39:45.697Z,99.90
2018-08-11T03:42:14.305Z,99.90
2018-08-11T03:44:42.922Z,99.90
2018-08-11T03:47:11.535Z,99.90
2018-08-11T03:49:40.200Z,99.90
2018-08-11T03:52:08.994Z,99.90
2018-08-11T03:54:37.635Z,99.90
2018-08-11T03:57:06.284Z,99.40
2018-08-11T03:59:35.036Z,99.60
2018-08-11T04:02:03.781Z,99.80
2018-08-11T04:04:32.495Z,99.70
2018-08-11T04:07:01.178Z,99.90
2018-08-11T04:09:29.820Z,99.90
2018-08-11T04:11:58.519Z,99.90
2018-08-11T04:14:27.587Z,99.70
2018-08-11T04:16:56.316Z,99.80
2018-08-11T04:19:25.121Z,99.60
2018-08-11T04:21:53.860Z,99.60
2018-08-11T04:24:22.499Z,99.70
2018-08-11T04:26:51.117Z,99.40
2018-08-11T04:29:20.279Z,99.60
2018-08-11T04:31:48.825Z,99.70
2018-08-11T04:34:17.412Z,99.40
2018-08-11T04:36:46.022Z,98.80
2018-08-11T04:39:14.699Z,98.70
2018-08-11T04:41:43.238Z,98.40
2018-08-11T04:44:11.860Z,97.80
2018-08-11T04:46:40.475Z,97.50
2018-08-11T04:49:09.097Z,97.70
2018-08-11T04:51:37.771Z,97.70
2018-08-11T04:54:06.555Z,98.00
2018-08-11T04:56:35.057Z,98.50
2018-08-11T04:59:03.623Z,97.80
2018-08-11T05:01:32.160Z,97.40
2018-08-11T05:04:00.687Z,97.40
2018-08-11T05:06:29.205Z,97.60
2018-08-11T05:08:57.837Z,97.40
2018-08-11T05:11:26.454Z,97.30
2018-08-11T05:13:55.016Z,96.90
2018-08-11T05:16:23.567Z,97.10
2018-08-11T05:18:52.072Z,97.30
2018-08-11T05:21:20.699Z,97.80
2018-08-11T05:23:49.214Z,98.50
2018-08-11T05:26:17.922Z,98.70
2018-08-11T05:28:46.395Z,98.90
2018-08-11T05:31:14.990Z,99.10
2018-08-11T05:33:43.495Z,98.70
2018-08-11T05:36:12.120Z,98.30
2018-08-11T05:38:40.599Z,97.70
2018-08-11T05:41:09.168Z,98.20
2018-08-11T05:43:37.738Z,98.50
2018-08-11T05:46:06.320Z,98.60
2018-08-11T05:48:34.924Z,98.60
2018-08-11T05:51:03.558Z,98.60
2018-08-11T05:53:32.204Z,97.80
2018-08-11T05:56:00.807Z,97.50
2018-08-11T05:58:29.405Z,98.50
2018-08-11T06:00:57.964Z,98.70
2018-08-11T06:03:26.660Z,98.80
2018-08-11T06:05:55.362Z,98.60
2018-08-11T06:08:24.002Z,96.90
2018-08-11T06:10:52.514Z,96.80
2018-08-11T06:13:21.216Z,97.30
2018-08-11T06:15:49.772Z,97.30
2018-08-11T06:18:18.365Z,96.50
2018-08-11T06:20:46.890Z,96.70
2018-08-11T06:23:15.583Z,96.60
2018-08-11T06:25:44.155Z,96.50
2018-08-11T06:28:12.854Z,96.50
2018-08-11T06:30:41.765Z,95.60
2018-08-11T06:33:10.432Z,95.40
2018-08-11T06:35:39.029Z,95.40
2018-08-11T06:38:07.588Z,95.60
2018-08-11T06:40:36.149Z,94.90
2018-08-11T06:43:04.694Z,95.20
2018-08-11T06:45:33.250Z,95.60
2018-08-11T06:48:01.779Z,95.00
2018-08-11T06:50:30.439Z,95.10
2018-08-11T06:52:59.016Z,93.80
2018-08-11T06:55:27.675Z,93.90
2018-08-11T06:57:56.154Z,93.80
2018-08-11T07:00:24.697Z,94.30
2018-08-11T07:02:53.275Z,93.70
2018-08-11T07:05:21.803Z,93.40
2018-08-11T07:07:50.338Z,93.60
2018-08-11T07:10:19.890Z,93.50
2018-08-11T07:12:48.384Z,93.30
2018-08-11T07:15:16.986Z,93.70
2018-08-11T07:17:45.505Z,93.00
2018-08-11T07:20:14.060Z,93.00
2018-08-11T07:22:42.706Z,93.60
2018-08-11T07:25:11.289Z,92.80
2018-08-11T07:27:39.840Z,92.90
2018-08-11T07:30:08.419Z,93.20
2018-08-11T07:32:37.032Z,92.70
2018-08-11T07:35:05.674Z,92.60
2018-08-11T07:37:34.637Z,92.30
2018-08-11T07:40:03.967Z,92.10
2018-08-11T07:42:32.516Z,91.60
2018-08-11T07:45:01.129Z,91.90
2018-08-11T07:47:29.721Z,91.70
2018-08-11T07:49:58.270Z,91.40
2018-08-11T07:52:26.848Z,92.30
2018-08-11T07:54:55.488Z,92.10
2018-08-11T07:57:24.142Z,92.10
2018-08-11T07:59:52.738Z,91.90
2018-08-11T08:02:21.333Z,92.10
2018-08-11T08:04:49.838Z,91.70
2018-08-11T08:07:18.446Z,91.10
2018-08-11T08:09:48.064Z,91.30
2018-08-11T08:12:16.771Z,91.00
2018-08-11T08:14:45.295Z,89.60
2018-08-11T08:17:13.874Z,87.10
2018-08-11T08:19:42.450Z,87.10
2018-08-11T08:22:10.991Z,87.20
2018-08-11T08:24:39.514Z,86.10
2018-08-11T08:27:08.077Z,85.50
2018-08-11T08:29:36.574Z,84.60
2018-08-11T08:32:08.047Z,85.40
2018-08-11T08:34:37.298Z,85.80
2018-08-11T08:37:06.190Z,87.20
2018-08-11T08:39:34.952Z,87.40
2018-08-11T08:42:03.949Z,86.10
2018-08-11T08:44:32.562Z,84.40
2018-08-11T08:47:01.814Z,85.60
2018-08-11T08:49:30.354Z,84.80
2018-08-11T08:51:58.863Z,82.40
2018-08-11T08:54:27.422Z,81.80
2018-08-11T08:56:55.935Z,83.30
2018-08-11T08:59:24.450Z,83.00
2018-08-11T09:01:52.995Z,83.00
2018-08-11T09:04:21.559Z,83.80
2018-08-11T09:06:50.043Z,84.00
2018-08-11T09:09:18.654Z,82.40
2018-08-11T09:11:47.198Z,80.10
2018-08-11T09:14:15.806Z,81.10
2018-08-11T09:16:44.355Z,82.20
2018-08-11T09:19:12.950Z,79.60
2018-08-11T09:21:41.450Z,77.60
2018-08-11T09:24:10.703Z,76.80
2018-08-11T09:26:39.277Z,78.50
2018-08-11T09:29:07.894Z,76.70
2018-08-11T09:31:36.373Z,77.50
2018-08-11T09:34:04.969Z,76.20
2018-08-11T09:36:33.599Z,75.00
2018-08-11T09:39:02.142Z,76.30
2018-08-11T09:41:30.657Z,76.10
2018-08-11T09:43:59.145Z,73.70
2018-08-11T09:46:27.690Z,71.70
2018-08-11T09:48:56.179Z,71.90
2018-08-11T09:51:24.822Z,71.70
2018-08-11T09:53:53.387Z,72.80
2018-08-11T09:56:21.963Z,74.40
2018-08-11T09:58:50.578Z,73.50
2018-08-11T10:01:24.435Z,72.70
2018-08-11T10:03:52.939Z,73.10
2018-08-11T10:06:21.493Z,70.90
2018-08-11T10:08:49.988Z,73.50
2018-08-11T10:11:18.560Z,74.80
2018-08-11T10:13:47.115Z,73.70
2018-08-11T10:16:15.691Z,73.80
2018-08-11T10:18:44.239Z,74.00
2018-08-11T10:21:12.799Z,70.80
2018-08-11T10:23:41.339Z,69.90
2018-08-11T10:26:09.906Z,70.00
2018-08-11T10:28:38.502Z,70.20
2018-08-11T10:31:07.225Z,69.80
2018-08-11T10:33:35.776Z,67.70
2018-08-11T10:36:05.583Z,67.90
2018-08-11T10:38:34.161Z,65.30
2018-08-11T10:41:02.704Z,67.70
2018-08-11T10:43:31.307Z,68.40
2018-08-11T10:46:00.160Z,68.70
2018-08-11T10:48:28.814Z,67.70
2018-08-11T10:50:57.420Z,66.40
2018-08-11T10:53:26.006Z,64.50
2018-08-11T10:55:54.603Z,63.20
2018-08-11T10:58:23.258Z,63.30
2018-08-11T11:00:52.004Z,62.30
2018-08-11T11:03:20.581Z,63.90
2018-08-11T11:05:49.127Z,60.50
2018-08-11T11:08:17.743Z,60.60
2018-08-11T11:10:46.184Z,63.20
2018-08-11T11:13:14.803Z,63.00
2018-08-11T11:15:43.318Z,61.70
2018-08-11T11:18:11.861Z,60.50
2018-08-11T11:20:40.399Z,59.40
2018-08-11T11:23:08.874Z,59.50
2018-08-11T11:25:37.394Z,58.60
2018-08-11T11:28:05.923Z,60.50
2018-08-11T11:30:34.462Z,60.10
2018-08-11T11:33:02.929Z,59.50
2018-08-11T11:35:31.456Z,59.40
2018-08-11T11:38:00.029Z,60.00
2018-08-11T11:40:28.631Z,56.20
2018-08-11T11:42:57.192Z,52.00
2018-08-11T11:45:25.784Z,49.90
2018-08-11T11:47:54.628Z,49.60
2018-08-11T11:50:23.142Z,50.90
2018-08-11T11:52:51.666Z,49.60
2018-08-11T11:55:20.215Z,49.20
2018-08-11T11:57:48.774Z,46.90
2018-08-11T12:00:17.407Z,45.90
2018-08-11T12:02:46.023Z,47.70
2018-08-11T12:05:14.562Z,45.90
2018-08-11T12:07:43.089Z,48.30
2018-08-11T12:10:11.661Z,45.30
2018-08-11T12:12:40.176Z,43.80
2018-08-11T12:15:08.759Z,43.30
2018-08-11T12:17:37.317Z,44.10
2018-08-11T12:20:06.086Z,43.50
2018-08-11T12:22:34.633Z,43.10
2018-08-11T12:25:03.231Z,43.40
2018-08-11T12:27:31.824Z,41.80
2018-08-11T12:30:00.364Z,42.40
2018-08-11T12:32:28.880Z,44.30
2018-08-11T12:34:57.463Z,41.60
2018-08-11T12:37:26.054Z,41.90
2018-08-11T12:39:54.593Z,41.50
2018-08-11T12:42:23.126Z,41.30
2018-08-11T12:44:51.631Z,40.40
2018-08-11T12:47:20.208Z,38.20
2018-08-11T12:49:48.757Z,38.40
2018-08-11T12:52:17.354Z,39.40
2018-08-11T12:54:45.847Z,39.30
2018-08-11T12:57:14.355Z,39.40
2018-08-11T12:59:42.863Z,42.50
2018-08-11T13:02:11.396Z,42.50
2018-08-11T13:04:39.871Z,41.60
2018-08-11T13:07:08.417Z,40.30
2018-08-11T13:09:36.933Z,40.90
2018-08-11T13:12:05.421Z,40.10
2018-08-11T13:14:34.017Z,41.40
2018-08-11T13:17:02.522Z,39.00
2018-08-11T13:19:31.363Z,38.30
2018-08-11T13:21:59.887Z,38.70
2018-08-11T13:24:28.459Z,40.50
2018-08-11T13:26:56.950Z,37.60
2018-08-11T13:29:25.466Z,39.80
2018-08-11T13:31:54.035Z,40.90
2018-08-11T13:34:22.567Z,38.70
2018-08-11T13:36:51.106Z,37.90
2018-08-11T13:39:19.647Z,38.40
2018-08-11T13:41:49.411Z,39.50
2018-08-11T13:44:19.098Z,39.60
2018-08-11T13:46:47.651Z,41.30
2018-08-11T13:49:16.249Z,42.10
2018-08-11T13:51:44.710Z,40.40
2018-08-11T13:54:13.242Z,41.30
2018-08-11T13:56:42.126Z,41.20
2018-08-11T13:59:10.692Z,40.90
2018-08-11T14:01:39.198Z,40.30
2018-08-11T14:04:07.770Z,40.10
2018-08-11T14:06:36.286Z,40.20
2018-08-11T14:09:07.196Z,41.50
2018-08-11T14:11:35.757Z,41.20
2018-08-11T14:14:04.387Z,39.80
2018-08-11T14:16:32.929Z,41.40
2018-08-11T14:19:01.455Z,40.60
2018-08-11T14:21:30.077Z,42.50
2018-08-11T14:23:58.625Z,40.20
2018-08-11T14:26:27.175Z,42.30
2018-08-11T14:28:55.680Z,42.90
2018-08-11T14:31:24.219Z,39.70
2018-08-11T14:33:52.730Z,40.60
2018-08-11T14:36:21.346Z,42.20
2018-08-11T14:38:49.942Z,42.70
2018-08-11T14:41:19.027Z,41.40
2018-08-11T14:43:47.547Z,41.10
2018-08-11T14:46:16.091Z,41.30
2018-08-11T14:48:44.564Z,40.80
2018-08-11T14:51:13.091Z,42.00
2018-08-11T14:53:41.610Z,40.00
2018-08-11T14:56:10.189Z,39.20
2018-08-11T14:58:38.786Z,40.20
2018-08-11T15:01:07.466Z,41.50
2018-08-11T15:03:35.996Z,42.60
2018-08-11T15:06:04.543Z,42.50
2018-08-11T15:08:33.095Z,41.90
2018-08-11T15:11:01.671Z,42.50
2018-08-11T15:13:30.222Z,41.40
2018-08-11T15:15:58.857Z,43.80
2018-08-11T15:18:27.383Z,43.40
2018-08-11T15:20:55.915Z,43.70
2018-08-11T15:23:24.459Z,44.10
2018-08-11T15:25:52.951Z,42.50
2018-08-11T15:28:21.449Z,43.20
2018-08-11T15:30:49.964Z,43.60
2018-08-11T15:33:18.519Z,44.40
2018-08-11T15:35:47.039Z,44.60
2018-08-11T15:38:16.439Z,45.00
2018-08-11T15:40:44.891Z,44.00
2018-08-11T15:43:13.370Z,44.80
2018-08-11T15:45:41.816Z,45.10
2018-08-11T15:48:10.354Z,45.40
2018-08-11T15:50:38.838Z,46.90
2018-08-11T15:53:07.374Z,47.10
2018-08-11T15:55:35.875Z,47.30
2018-08-11T15:58:04.455Z,46.80
2018-08-11T16:00:32.915Z,47.60
2018-08-11T16:03:01.390Z,45.70
2018-08-11T16:05:29.936Z,46.60
2018-08-11T16:07:58.445Z,45.60
2018-08-11T16:10:27.017Z,45.50
2018-08-11T16:12:55.539Z,45.00
2018-08-11T16:15:24.084Z,44.90
2018-08-11T16:17:52.579Z,45.30
2018-08-11T16:20:21.102Z,47.10
2018-08-11T16:22:49.639Z,46.70
2018-08-11T16:25:18.168Z,47.00
2018-08-11T16:27:46.645Z,47.40
2018-08-11T16:30:15.195Z,47.50
2018-08-11T16:32:43.685Z,47.30
2018-08-11T16:35:12.233Z,47.60
2018-08-11T16:37:40.739Z,49.20
2018-08-11T16:40:09.400Z,49.00
2018-08-11T16:42:37.981Z,49.50
2018-08-11T16:45:06.762Z,50.30
2018-08-11T16:47:35.228Z,51.40
2018-08-11T16:50:03.839Z,49.80
2018-08-11T16:52:32.345Z,49.00
2018-08-11T16:55:03.103Z,49.90
2018-08-11T16:57:31.653Z,49.40
2018-08-11T17:00:00.248Z,48.90
2018-08-11T17:02:28.780Z,48.90
2018-08-11T17:04:57.261Z,49.20
2018-08-11T17:07:25.757Z,49.80
2018-08-11T17:09:54.232Z,50.50
2018-08-11T17:12:22.763Z,50.90
2018-08-11T17:14:51.311Z,50.20
2018-08-11T17:17:19.859Z,50.10
2018-08-11T17:19:48.335Z,50.50
2018-08-11T17:22:16.831Z,50.50
2018-08-11T17:24:45.319Z,51.50
2018-08-11T17:27:13.958Z,51.80
2018-08-11T17:29:42.456Z,51.30
2018-08-11T17:32:11.051Z,52.40
2018-08-11T17:34:39.507Z,52.40
2018-08-11T17:37:08.063Z,52.10
2018-08-11T17:39:36.519Z,52.00
2018-08-11T17:42:05.061Z,53.20
2018-08-11T17:44:33.594Z,53.20
2018-08-11T17:47:03.056Z,53.50
2018-08-11T17:49:31.564Z,54.80
2018-08-11T17:52:00.134Z,54.70
2018-08-11T17:54:28.587Z,56.20
2018-08-11T17:56:57.142Z,57.10
2018-08-11T17:59:25.651Z,57.60
2018-08-11T18:01:54.102Z,58.90
2018-08-11T18:04:22.631Z,59.60
2018-08-11T18:06:51.139Z,60.80
2018-08-11T18:09:19.722Z,60.10
2018-08-11T18:11:48.322Z,61.40
2018-08-11T18:14:16.823Z,62.10
2018-08-11T18:16:45.330Z,63.70
2018-08-11T18:19:13.827Z,63.40
2018-08-11T18:21:42.339Z,62.80
2018-08-11T18:24:10.859Z,61.90
2018-08-11T18:26:39.435Z,61.90
2018-08-11T18:29:07.967Z,60.60
2018-08-11T18:31:36.495Z,59.60
2018-08-11T18:34:05.039Z,59.80
2018-08-11T18:36:33.634Z,60.30
2018-08-11T18:39:03.031Z,61.20
2018-08-11T18:41:31.553Z,59.80
2018-08-11T18:44:00.067Z,59.90
2018-08-11T18:46:28.547Z,59.30
2018-08-11T18:48:57.048Z,58.50
2018-08-11T18:51:25.581Z,58.10
2018-08-11T18:53:54.075Z,58.00
2018-08-11T18:56:22.662Z,58.50
2018-08-11T18:58:51.215Z,58.20
2018-08-11T19:01:19.891Z,58.10
2018-08-11T19:03:48.411Z,58.50
2018-08-11T19:06:16.999Z,58.30
2018-08-11T19:08:45.576Z,57.60
2018-08-11T19:11:14.223Z,58.00
2018-08-11T19:13:42.767Z,58.20
2018-08-11T19:16:11.375Z,57.90
2018-08-11T19:18:40.019Z,57.80
2018-08-11T19:21:08.854Z,58.00
2018-08-11T19:23:37.362Z,58.30
2018-08-11T19:26:05.963Z,58.40
2018-08-11T19:28:34.488Z,58.20
2018-08-11T19:31:03.323Z,58.40
2018-08-11T19:33:31.910Z,58.60
2018-08-11T19:36:00.467Z,58.10
2018-08-11T19:38:31.104Z,58.90
2018-08-11T19:40:59.684Z,58.70
2018-08-11T19:43:28.221Z,59.00
2018-08-11T19:45:56.711Z,58.90
2018-08-11T19:48:25.283Z,59.50
2018-08-11T19:50:53.792Z,59.00
2018-08-11T19:53:22.316Z,59.70
2018-08-11T19:55:50.839Z,59.60
2018-08-11T19:58:19.399Z,60.30
2018-08-11T20:00:47.995Z,60.00
2018-08-11T20:03:16.551Z,60.10
2018-08-11T20:05:45.093Z,61.50
2018-08-11T20:08:13.695Z,60.90
2018-08-11T20:10:42.219Z,61.20
2018-08-11T20:13:10.818Z,60.80
2018-08-11T20:15:39.347Z,62.30
2018-08-11T20:18:07.878Z,62.30
2018-08-11T20:20:36.389Z,62.40
2018-08-11T20:23:05.015Z,62.60
2018-08-11T20:25:33.795Z,62.30
2018-08-11T20:28:03.359Z,62.50
2018-08-11T20:30:31.934Z,64.10
2018-08-11T20:33:00.556Z,63.70
2018-08-11T20:35:29.171Z,64.30
2018-08-11T20:37:57.787Z,64.10
2018-08-11T20:40:26.335Z,64.10
2018-08-11T20:42:54.866Z,63.70
2018-08-11T20:45:23.371Z,64.50
2018-08-11T20:47:51.863Z,65.00
2018-08-11T20:50:20.487Z,65.00
2018-08-11T20:52:49.059Z,64.50
2018-08-11T20:55:17.669Z,65.00
2018-08-11T20:57:46.259Z,65.30
2018-08-11T21:00:14.890Z,65.50
2018-08-11T21:02:43.419Z,65.60
2018-08-11T21:05:13.392Z,66.80
2018-08-11T21:07:41.924Z,67.10
2018-08-11T21:10:13.308Z,66.60
2018-08-11T21:12:42.476Z,68.10
2018-08-11T21:15:11.811Z,69.30
2018-08-11T21:17:40.389Z,68.90
2018-08-11T21:20:11.547Z,69.80
2018-08-11T21:22:40.091Z,70.20
2018-08-11T21:25:09.607Z,70.80
2018-08-11T21:27:38.607Z,70.60
2018-08-11T21:30:10.983Z,70.10
2018-08-11T21:32:39.502Z,71.40
2018-08-11T21:35:08.116Z,71.50
2018-08-11T21:37:36.677Z,72.50
2018-08-11T21:40:07.847Z,72.80
2018-08-11T21:42:36.416Z,72.70
2018-08-11T21:45:05.339Z,73.30
2018-08-11T21:47:34.288Z,73.30
2018-08-11T21:50:02.853Z,73.50
2018-08-11T21:52:31.371Z,73.60
2018-08-11T21:55:00.024Z,74.80
2018-08-11T21:57:28.534Z,74.20
2018-08-11T21:59:57.047Z,73.10
2018-08-11T22:02:25.619Z,73.40
2018-08-11T22:04:54.142Z,74.00
2018-08-11T22:07:22.748Z,73.60
2018-08-11T22:09:51.227Z,74.60
2018-08-11T22:12:19.787Z,74.20
2018-08-11T22:14:48.328Z,74.90
2018-08-11T22:17:16.892Z,75.90
2018-08-11T22:19:45.412Z,76.60
2018-08-11T22:22:13.983Z,77.70
2018-08-11T22:24:42.519Z,78.00
2018-08-11T22:27:11.112Z,79.10
2018-08-11T22:29:39.619Z,79.20
2018-08-11T22:32:08.153Z,79.90
2018-08-11T22:34:36.693Z,80.60
2018-08-11T22:37:05.454Z,81.10
2018-08-11T22:39:34.014Z,81.40
2018-08-11T22:42:02.539Z,81.90
2018-08-11T22:44:31.057Z,82.50
2018-08-11T22:46:59.611Z,82.80
2018-08-11T22:49:28.127Z,83.30
2018-08-11T22:51:56.685Z,83.30
2018-08-11T22:54:25.227Z,83.90
2018-08-11T22:56:53.731Z,84.40
2018-08-11T22:59:22.292Z,84.80
2018-08-11T23:01:50.769Z,85.30
2018-08-11T23:04:19.372Z,86.10
2018-08-11T23:06:47.917Z,86.80
2018-08-11T23:09:16.474Z,87.30
2018-08-11T23:11:45.016Z,87.70
2018-08-11T23:14:13.616Z,88.00
2018-08-11T23:16:42.127Z,88.10
2018-08-11T23:19:10.669Z,88.70
2018-08-11T23:21:39.130Z,88.90
2018-08-11T23:24:07.647Z,89.70
2018-08-11T23:26:36.748Z,89.50
2018-08-11T23:29:05.266Z,89.20
2018-08-11T23:31:33.790Z,89.20
2018-08-11T23:34:02.296Z,89.20
2018-08-11T23:36:30.953Z,89.40
2018-08-11T23:38:59.514Z,90.00
2018-08-11T23:41:28.114Z,89.70
2018-08-11T23:43:56.625Z,89.50
2018-08-11T23:46:25.148Z,89.50
2018-08-11T23:48:53.680Z,89.20
2018-08-11T23:51:22.237Z,89.20
2018-08-11T23:53:50.784Z,89.40
2018-08-11T23:56:19.413Z,89.50
2018-08-11T23:58:47.929Z,89.50
